Time;durP1;ratioP1;P1;durP2;ratioP2;P2;SDS_P1;SDS_P2;PMS_P1;PMS_P2;Temp;Humidity;BMP_temperature;BMP_pressure;BME280_temperature;BME280_humidity;BME280_pressure;Samples;Min_cycle;Max_cycle;Signal;HPM_P1;HPM_P2
2022/05/08 00:01:35;;;;;;;2.00;1.80;;;24.60;59.30;;;;;;5053990;28;20944;-82
2022/05/08 00:04:03;;;;;;;6.13;2.17;;;24.50;59.20;;;;;;5039900;28;20437;-82
2022/05/08 00:06:30;;;;;;;1.53;1.43;;;24.50;59.10;;;;;;5057499;28;20434;-82
2022/05/08 00:08:58;;;;;;;1.53;1.43;;;24.50;59.10;;;;;;5057338;28;20445;-82
2022/05/08 00:11:24;;;;;;;2.10;1.80;;;24.40;59.10;;;;;;5053936;28;20633;-82
2022/05/08 00:13:51;;;;;;;2.40;2.20;;;24.50;59.10;;;;;;5053794;28;20445;-92
2022/05/08 00:16:18;;;;;;;2.13;1.60;;;24.50;59.10;;;;;;5053270;28;20512;-87
2022/05/08 00:18:44;;;;;;;2.40;2.17;;;24.40;59.00;;;;;;5053631;28;20442;-82
2022/05/08 00:21:13;;;;;;;2.63;1.60;;;24.40;59.00;;;;;;5053277;28;20438;-83
2022/05/08 00:23:39;;;;;;;1.97;1.67;;;24.40;59.00;;;;;;5053050;28;20457;-82
2022/05/08 00:26:08;;;;;;;1.60;1.50;;;24.40;59.00;;;;;;5053431;28;20437;-82
2022/05/08 00:28:35;;;;;;;2.17;1.90;;;24.40;59.00;;;;;;5035856;28;20445;-83
2022/05/08 00:31:01;;;;;;;2.60;2.40;;;24.50;59.10;;;;;;5053529;28;20465;-83
2022/05/08 00:33:28;;;;;;;2.40;2.20;;;24.40;59.00;;;;;;5053178;28;20434;-82
2022/05/08 00:35:55;;;;;;;2.10;1.90;;;24.40;59.00;;;;;;5052905;28;20843;-82
2022/05/08 00:38:23;;;;;;;2.10;2.00;;;24.50;59.70;;;;;;5053083;28;20814;-82
2022/05/08 00:40:50;;;;;;;1.50;1.40;;;24.40;59.00;;;;;;5055534;28;20451;-82
2022/05/08 00:43:34;;;;;;;1.93;1.60;;;24.40;59.00;;;;;;5073028;28;20449;-82
2022/05/08 00:46:02;;;;;;;2.43;2.20;;;24.40;59.00;;;;;;5072948;28;20441;-83
2022/05/08 00:48:29;;;;;;;1.80;1.70;;;24.40;59.10;;;;;;5072785;28;20989;-82
2022/05/08 00:50:57;;;;;;;2.17;1.83;;;24.40;59.00;;;;;;5073065;28;20437;-81
2022/05/08 00:53:27;;;;;;;1.80;1.40;;;24.40;59.10;;;;;;5053924;28;20976;-88
2022/05/08 00:55:55;;;;;;;1.40;1.30;;;24.40;59.00;;;;;;5053014;28;20505;-87
2022/05/08 00:58:22;;;;;;;1.50;1.40;;;24.40;59.00;;;;;;5035423;28;20434;-82
2022/05/08 01:00:49;;;;;;;1.77;1.57;;;24.40;59.10;;;;;;5055470;28;20442;-87
2022/05/08 01:03:16;;;;;;;4.77;1.60;;;24.40;59.10;;;;;;5056905;28;20445;-84
2022/05/08 01:05:43;;;;;;;1.70;1.60;;;24.40;58.60;;;;;;5056211;28;20839;-84
2022/05/08 01:08:11;;;;;;;1.70;1.60;;;24.40;58.60;;;;;;5056739;28;20450;-83
2022/05/08 01:10:40;;;;;;;2.40;1.77;;;24.40;58.70;;;;;;5056329;28;20967;-82
2022/05/08 01:13:07;;;;;;;1.53;1.43;;;24.50;58.70;;;;;;5056616;28;20465;-85
2022/05/08 01:15:41;;;;;;;6.40;2.00;;;24.40;58.60;;;;;;5056532;28;20493;-82
2022/05/08 01:18:09;;;;;;;2.90;1.90;;;24.40;58.40;;;;;;5079745;28;20447;-95
2022/05/08 01:20:36;;;;;;;2.07;1.70;;;24.40;58.60;;;;;;5077888;28;20437;-82
2022/05/08 01:23:06;;;;;;;2.70;1.70;;;24.40;58.90;;;;;;5076980;28;20465;-82
2022/05/08 01:25:33;;;;;;;2.30;1.87;;;24.40;59.00;;;;;;5077429;28;20437;-95
2022/05/08 01:28:00;;;;;;;3.23;1.90;;;24.40;59.10;;;;;;5076640;28;20437;-96
2022/05/08 01:30:27;;;;;;;7.83;1.43;;;24.40;59.30;;;;;;5076338;28;20452;-94
2022/05/08 01:32:55;;;;;;;2.37;1.50;;;24.40;59.50;;;;;;5076718;28;20441;-85
2022/05/08 01:35:21;;;;;;;1.70;1.50;;;24.40;59.60;;;;;;5077291;28;20449;-84
2022/05/08 01:37:48;;;;;;;1.60;1.50;;;24.40;59.20;;;;;;5083645;28;20448;-83
2022/05/08 01:40:17;;;;;;;1.60;1.50;;;24.40;59.00;;;;;;5085443;28;20440;-84
2022/05/08 01:42:45;;;;;;;1.80;1.70;;;24.40;59.20;;;;;;5077085;28;21039;-85
2022/05/08 01:45:12;;;;;;;2.37;1.80;;;24.30;59.40;;;;;;5076873;28;20441;-89
2022/05/08 01:50:24;;;;;;;3.93;1.50;;;24.40;59.50;;;;;;5076652;28;20436;-95
2022/05/08 01:52:51;;;;;;;4.20;1.50;;;24.30;59.50;;;;;;5075589;28;20473;-94
2022/05/08 01:55:19;;;;;;;2.83;1.30;;;24.40;59.60;;;;;;5074873;28;20936;-93
2022/05/08 01:57:46;;;;;;;1.60;1.40;;;24.40;59.50;;;;;;5074199;28;21018;-94
2022/05/08 02:00:14;;;;;;;1.90;1.80;;;24.40;59.50;;;;;;5075068;28;20460;-93
2022/05/08 02:02:43;;;;;;;3.03;1.40;;;24.40;59.50;;;;;;5074453;28;20898;-94
2022/05/08 02:05:10;;;;;;;1.67;1.40;;;24.40;59.40;;;;;;5057330;28;20452;-85
2022/05/08 02:07:37;;;;;;;1.83;1.50;;;24.40;59.40;;;;;;5074721;28;20947;-93
2022/05/08 02:10:04;;;;;;;1.97;1.77;;;24.30;59.30;;;;;;5075591;28;20460;-87
2022/05/08 02:12:32;;;;;;;1.43;1.30;;;24.40;59.40;;;;;;5075108;28;20441;-84
2022/05/08 02:14:59;;;;;;;1.73;1.50;;;24.40;59.40;;;;;;5075583;28;20472;-83
2022/05/08 02:17:26;;;;;;;1.60;1.47;;;24.40;59.30;;;;;;5075753;28;20487;-95
2022/05/08 02:19:53;;;;;;;2.53;1.50;;;24.40;59.40;;;;;;5075803;28;20447;-83
2022/05/08 02:22:20;;;;;;;1.40;1.30;;;24.30;59.30;;;;;;5075658;28;20464;-84
2022/05/08 02:24:47;;;;;;;1.87;1.50;;;24.30;59.20;;;;;;5075581;28;20916;-84
2022/05/08 02:27:13;;;;;;;1.50;1.40;;;24.30;59.20;;;;;;5075572;28;20445;-83
2022/05/08 02:29:41;;;;;;;1.70;1.60;;;24.40;59.30;;;;;;5075249;28;20433;-92
2022/05/08 02:32:09;;;;;;;2.13;1.67;;;24.30;59.20;;;;;;5075368;28;20445;-93
2022/05/08 02:34:36;;;;;;;1.93;1.57;;;24.30;59.20;;;;;;5075290;28;20444;-83
2022/05/08 02:37:02;;;;;;;1.60;1.50;;;24.30;59.20;;;;;;5074744;28;20492;-83
2022/05/08 02:39:29;;;;;;;1.40;1.30;;;24.30;59.20;;;;;;5074748;28;20445;-84
2022/05/08 02:41:56;;;;;;;1.70;1.60;;;24.30;59.20;;;;;;5074517;28;20437;-83
2022/05/08 02:44:22;;;;;;;2.00;1.90;;;24.30;59.20;;;;;;5075062;28;20436;-84
2022/05/08 02:46:51;;;;;;;4.80;2.00;;;24.30;59.20;;;;;;5074664;28;20955;-85
2022/05/08 02:49:17;;;;;;;4.87;1.60;;;24.30;59.10;;;;;;5074663;28;20444;-83
2022/05/08 02:51:44;;;;;;;1.57;1.47;;;24.30;59.10;;;;;;5075098;28;20471;-83
2022/05/08 02:54:11;;;;;;;1.87;1.53;;;24.30;59.10;;;;;;5074541;28;20432;-93
2022/05/08 02:59:22;;;;;;;1.50;1.40;;;24.30;59.00;;;;;;5074738;28;20455;-83
2022/05/08 03:01:50;;;;;;;1.50;1.40;;;24.30;59.10;;;;;;5074785;28;20441;-83
2022/05/08 03:04:17;;;;;;;2.03;1.90;;;24.40;59.10;;;;;;5057978;28;20440;-91
2022/05/08 03:06:44;;;;;;;2.10;1.43;;;24.30;59.10;;;;;;5074590;28;20495;-82
2022/05/08 03:09:11;;;;;;;1.87;1.77;;;24.30;59.00;;;;;;5074321;28;20445;-90
2022/05/08 03:11:38;;;;;;;1.80;1.70;;;24.30;59.00;;;;;;5074442;28;20441;-83
2022/05/08 03:14:04;;;;;;;2.40;1.57;;;24.30;59.00;;;;;;5074007;28;20456;-90
2022/05/08 03:16:31;;;;;;;1.30;1.20;;;24.30;58.90;;;;;;5074030;28;20563;-92
2022/05/08 03:18:59;;;;;;;2.10;1.90;;;24.30;58.90;;;;;;5074548;28;20459;-91
2022/05/08 03:21:35;;;;;;;1.67;1.57;;;24.30;58.90;;;;;;5074545;28;20464;-87
2022/05/08 03:24:01;;;;;;;2.10;1.90;;;24.30;58.90;;;;;;5074154;28;20568;-83
2022/05/08 03:26:31;;;;;;;1.60;1.50;;;24.30;58.80;;;;;;5073986;28;20437;-91
2022/05/08 03:28:57;;;;;;;1.70;1.60;;;24.30;58.80;;;;;;5074145;28;20500;-83
2022/05/08 03:31:24;;;;;;;1.33;1.23;;;24.30;58.80;;;;;;5074139;28;20435;-87
2022/05/08 03:33:51;;;;;;;1.60;1.50;;;24.20;58.80;;;;;;5073789;28;20444;-89
2022/05/08 03:36:19;;;;;;;1.80;1.70;;;24.30;58.80;;;;;;5074067;28;20472;-84
2022/05/08 03:38:47;;;;;;;3.57;1.60;;;24.30;58.80;;;;;;5073916;28;20441;-82
2022/05/08 03:41:15;;;;;;;2.30;1.50;;;24.30;58.70;;;;;;5073972;28;20448;-91
2022/05/08 03:43:43;;;;;;;2.13;2.03;;;24.30;58.70;;;;;;5073848;28;20445;-92
2022/05/08 03:46:10;;;;;;;1.40;1.30;;;24.20;58.60;;;;;;5073974;28;20441;-83
2022/05/08 03:48:36;;;;;;;1.70;1.37;;;24.20;58.60;;;;;;5073658;28;20467;-83
2022/05/08 03:51:03;;;;;;;1.80;1.70;;;24.20;58.60;;;;;;5073858;28;20506;-92
2022/05/08 03:53:32;;;;;;;1.50;1.40;;;24.30;58.60;;;;;;5074249;28;20437;-92
2022/05/08 03:55:58;;;;;;;1.73;1.63;;;24.30;58.60;;;;;;5073644;28;20425;-83
2022/05/08 03:58:26;;;;;;;1.70;1.60;;;24.40;58.70;;;;;;5073743;28;20443;-88
2022/05/08 04:00:52;;;;;;;2.10;1.70;;;24.20;58.50;;;;;;5073521;28;20491;-83
2022/05/08 04:03:19;;;;;;;1.70;1.50;;;24.30;58.60;;;;;;5073313;28;20441;-83
2022/05/08 04:05:46;;;;;;;1.60;1.50;;;24.30;58.60;;;;;;5073895;28;20441;-85
2022/05/08 04:08:13;;;;;;;1.73;1.63;;;24.20;58.50;;;;;;5073454;28;20449;-91
2022/05/08 04:10:41;;;;;;;1.87;1.77;;;24.30;58.50;;;;;;5073652;28;20448;-92
2022/05/08 04:13:08;;;;;;;1.93;1.83;;;24.20;58.40;;;;;;5073536;28;20436;-89
2022/05/08 04:18:19;;;;;;;1.60;1.50;;;24.20;58.40;;;;;;5073544;28;20998;-83
2022/05/08 04:20:45;;;;;;;1.70;1.60;;;24.20;58.40;;;;;;5073673;28;20444;-83
2022/05/08 04:25:58;;;;;;;1.90;1.80;;;24.20;58.30;;;;;;5073808;28;20428;-90
2022/05/08 04:28:25;;;;;;;1.57;1.47;;;24.20;58.30;;;;;;5073857;28;20449;-89
2022/05/08 04:30:51;;;;;;;1.67;1.57;;;24.20;58.30;;;;;;5075446;28;20460;-86
2022/05/08 04:33:18;;;;;;;1.80;1.70;;;24.20;58.30;;;;;;5075036;28;20442;-90
2022/05/08 04:35:45;;;;;;;2.00;1.80;;;24.20;58.30;;;;;;5081782;28;20437;-83
2022/05/08 04:38:12;;;;;;;1.87;1.77;;;24.20;58.30;;;;;;5091749;28;20488;-82
2022/05/08 04:40:41;;;;;;;2.00;1.70;;;24.40;58.40;;;;;;5093248;28;20470;-81
2022/05/08 04:43:09;;;;;;;1.53;1.30;;;24.20;58.20;;;;;;5089851;28;20449;-92
2022/05/08 04:45:36;;;;;;;1.60;1.50;;;24.20;58.20;;;;;;5078520;28;20592;-91
2022/05/08 04:48:03;;;;;;;1.47;1.37;;;24.20;58.20;;;;;;5078330;28;20456;-91
2022/05/08 04:50:30;;;;;;;1.70;1.60;;;24.20;58.20;;;;;;5077004;28;20444;-83
2022/05/08 04:52:56;;;;;;;2.07;1.70;;;24.20;58.10;;;;;;5077034;28;20461;-92
2022/05/08 04:55:23;;;;;;;1.93;1.60;;;24.20;58.10;;;;;;5077504;28;20441;-91
2022/05/08 04:57:50;;;;;;;2.00;1.80;;;24.20;58.10;;;;;;5076773;28;20480;-84
2022/05/08 05:00:19;;;;;;;2.47;1.70;;;24.20;58.10;;;;;;5077322;28;20452;-84
2022/05/08 05:02:45;;;;;;;2.20;1.70;;;24.20;58.10;;;;;;5076866;28;20456;-89
2022/05/08 05:05:12;;;;;;;1.93;1.83;;;24.20;58.10;;;;;;5076847;28;20444;-93
2022/05/08 05:07:40;;;;;;;2.07;1.87;;;24.20;58.00;;;;;;5077023;28;20440;-84
2022/05/08 05:10:09;;;;;;;1.60;1.50;;;24.20;58.00;;;;;;5076885;28;20477;-92
2022/05/08 05:12:36;;;;;;;2.87;2.20;;;24.20;58.00;;;;;;5078049;28;20449;-92
2022/05/08 05:15:03;;;;;;;1.53;1.43;;;24.20;58.00;;;;;;5077116;28;20499;-85
2022/05/08 05:17:33;;;;;;;2.13;1.93;;;24.20;58.00;;;;;;5076685;28;20488;-89
2022/05/08 05:20:00;;;;;;;2.33;1.90;;;24.20;57.90;;;;;;5077046;28;20449;-91
2022/05/08 05:22:27;;;;;;;1.77;1.67;;;24.20;57.90;;;;;;5076989;28;20468;-91
2022/05/08 05:24:57;;;;;;;1.30;1.20;;;24.20;57.90;;;;;;5078049;28;20811;-91
2022/05/08 05:27:25;;;;;;;1.90;1.60;;;24.20;58.50;;;;;;5077707;28;20444;-92
2022/05/08 05:29:52;;;;;;;1.87;1.50;;;24.20;57.90;;;;;;5076341;28;20445;-92
2022/05/08 05:32:19;;;;;;;1.30;1.20;;;24.20;57.90;;;;;;5076140;28;20441;-92
2022/05/08 05:34:48;;;;;;;1.63;1.30;;;24.20;57.90;;;;;;5076676;28;20441;-85
2022/05/08 05:37:15;;;;;;;1.50;1.40;;;24.20;57.80;;;;;;5076727;28;20488;-84
2022/05/08 05:39:41;;;;;;;1.57;1.47;;;24.20;57.80;;;;;;5076767;28;20448;-84
2022/05/08 05:42:09;;;;;;;1.67;1.57;;;24.20;57.80;;;;;;5076995;28;20440;-86
2022/05/08 05:44:36;;;;;;;1.40;1.30;;;24.20;57.80;;;;;;5076808;28;20944;-89
2022/05/08 05:49:49;;;;;;;1.30;1.20;;;24.20;57.80;;;;;;5076278;28;20902;-86
2022/05/08 05:52:15;;;;;;;1.83;1.73;;;24.30;57.90;;;;;;5075771;28;20461;-83
2022/05/08 05:54:42;;;;;;;2.37;1.73;;;24.20;57.80;;;;;;5075601;28;20440;-84
2022/05/08 05:57:09;;;;;;;1.73;1.63;;;24.20;57.80;;;;;;5075702;28;20480;-89
2022/05/08 05:59:36;;;;;;;1.50;1.27;;;24.20;57.70;;;;;;5075738;28;20441;-84
2022/05/08 06:02:03;;;;;;;1.50;1.30;;;24.20;57.70;;;;;;5075731;28;20437;-83
2022/05/08 06:04:30;;;;;;;1.77;1.60;;;24.20;57.80;;;;;;5075704;28;20440;-82
2022/05/08 06:06:58;;;;;;;1.53;1.33;;;24.20;57.70;;;;;;5075505;28;20958;-82
2022/05/08 06:09:25;;;;;;;1.67;1.57;;;24.20;57.70;;;;;;5075368;28;20450;-82
2022/05/08 06:11:52;;;;;;;1.60;1.33;;;24.20;57.60;;;;;;5075363;28;20951;-87
2022/05/08 06:14:19;;;;;;;1.53;1.43;;;24.20;57.70;;;;;;5075282;28;20468;-82
2022/05/08 06:16:46;;;;;;;1.50;1.40;;;24.20;57.70;;;;;;5075209;28;20473;-84
2022/05/08 06:19:13;;;;;;;1.50;1.40;;;24.20;57.70;;;;;;5075215;28;20820;-91
2022/05/08 06:21:39;;;;;;;2.37;1.50;;;24.20;57.70;;;;;;5075060;28;20461;-91
2022/05/08 06:24:08;;;;;;;1.20;1.10;;;24.10;57.60;;;;;;5075411;28;20441;-85
2022/05/08 06:26:35;;;;;;;1.67;1.57;;;24.20;57.60;;;;;;5075137;28;20441;-82
2022/05/08 06:29:01;;;;;;;1.77;1.43;;;24.20;57.60;;;;;;5075713;28;20451;-88
2022/05/08 06:31:28;;;;;;;1.50;1.40;;;24.20;57.60;;;;;;5075199;28;20495;-91
2022/05/08 06:33:55;;;;;;;1.77;1.53;;;24.10;57.60;;;;;;5074985;28;20544;-83
2022/05/08 06:36:22;;;;;;;2.77;1.70;;;24.20;57.70;;;;;;5074937;28;20936;-91
2022/05/08 06:38:49;;;;;;;1.87;1.30;;;24.20;57.70;;;;;;5074870;28;20480;-90
2022/05/08 06:41:17;;;;;;;1.57;1.47;;;24.20;57.70;;;;;;5074890;28;20448;-90
2022/05/08 06:43:44;;;;;;;1.47;1.37;;;24.30;57.70;;;;;;5074928;28;20432;-83
2022/05/08 06:46:12;;;;;;;1.30;1.17;;;24.20;57.60;;;;;;5075091;28;21021;-83
2022/05/08 06:48:39;;;;;;;1.40;1.30;;;24.20;57.60;;;;;;5074950;28;20437;-84
2022/05/08 06:51:06;;;;;;;1.63;1.43;;;24.10;57.50;;;;;;5074758;28;20440;-84
2022/05/08 06:53:33;;;;;;;1.70;1.40;;;24.20;57.60;;;;;;5074999;28;20443;-83
2022/05/08 06:55:59;;;;;;;2.13;1.93;;;24.20;57.60;;;;;;5074547;28;20465;-87
2022/05/08 06:58:28;;;;;;;1.53;1.43;;;24.10;57.50;;;;;;5074307;28;20848;-87
2022/05/08 07:03:40;;;;;;;1.50;1.40;;;24.10;57.50;;;;;;5074396;28;20980;-91
2022/05/08 07:06:07;;;;;;;1.50;1.13;;;24.10;57.50;;;;;;5056536;28;20425;-90
2022/05/08 07:08:35;;;;;;;1.90;1.50;;;24.10;57.50;;;;;;5074588;28;20502;-86
2022/05/08 07:11:02;;;;;;;1.40;1.30;;;24.10;57.50;;;;;;5074281;28;20506;-85
2022/05/08 07:13:32;;;;;;;1.43;1.33;;;24.10;57.50;;;;;;5073992;28;20433;-92
2022/05/08 07:15:59;;;;;;;1.40;1.30;;;24.10;57.50;;;;;;5074356;28;20473;-88
2022/05/08 07:18:27;;;;;;;2.10;1.80;;;24.10;57.40;;;;;;5074336;28;20971;-92
2022/05/08 07:20:58;;;;;;;1.50;1.40;;;24.10;57.40;;;;;;5074229;28;20447;-88
2022/05/08 07:23:25;;;;;;;1.30;1.20;;;24.20;57.50;;;;;;5057823;28;21020;-85
2022/05/08 07:25:51;;;;;;;1.70;1.50;;;24.10;57.40;;;;;;5075362;28;20433;-84
2022/05/08 07:28:18;;;;;;;1.40;1.20;;;24.10;57.40;;;;;;5073945;28;20441;-92
2022/05/08 07:30:46;;;;;;;1.57;1.47;;;24.10;57.40;;;;;;5073992;28;20436;-91
2022/05/08 07:33:16;;;;;;;1.47;1.27;;;24.10;57.30;;;;;;5074272;28;20448;-92
2022/05/08 07:38:27;;;;;;;1.57;1.10;;;24.10;57.40;;;;;;5074722;28;20479;-92
2022/05/08 07:40:54;;;;;;;1.30;1.20;;;24.10;57.40;;;;;;5075661;28;20445;-88
2022/05/08 07:43:21;;;;;;;1.47;1.37;;;24.10;57.30;;;;;;5074488;28;20447;-93
2022/05/08 07:45:49;;;;;;;1.67;1.10;;;24.10;57.30;;;;;;5075773;28;20444;-92
2022/05/08 07:48:17;;;;;;;1.77;1.30;;;24.10;57.30;;;;;;5074078;28;20489;-84
2022/05/08 07:50:46;;;;;;;1.70;1.60;;;24.10;57.30;;;;;;5074023;28;20437;-92
2022/05/08 07:53:13;;;;;;;1.40;1.20;;;24.10;57.30;;;;;;5074041;28;20460;-92
2022/05/08 07:55:40;;;;;;;2.73;1.50;;;24.10;57.20;;;;;;5074120;28;20440;-85
2022/05/08 07:58:07;;;;;;;1.63;1.30;;;24.10;57.20;;;;;;5073867;28;20489;-84
2022/05/08 08:00:36;;;;;;;1.50;1.20;;;24.10;57.20;;;;;;5073472;28;20458;-84
2022/05/08 08:03:04;;;;;;;1.20;1.00;;;24.10;57.20;;;;;;5073779;28;20989;-91
2022/05/08 08:05:31;;;;;;;1.60;1.43;;;24.10;57.10;;;;;;5055613;28;20439;-84
2022/05/08 08:07:58;;;;;;;1.40;1.10;;;24.10;57.10;;;;;;5073708;28;20797;-84
2022/05/08 08:10:24;;;;;;;1.30;1.20;;;24.10;57.10;;;;;;5073105;28;20440;-85
2022/05/08 08:12:51;;;;;;;1.47;1.17;;;24.10;57.00;;;;;;5073774;28;20444;-84
2022/05/08 08:15:18;;;;;;;1.63;1.20;;;24.20;57.10;;;;;;5072928;28;20825;-85
2022/05/08 08:17:45;;;;;;;1.50;1.00;;;24.20;57.10;;;;;;5073175;28;20464;-83
2022/05/08 08:20:13;;;;;;;1.60;1.20;;;24.20;57.10;;;;;;5073139;28;21058;-84
2022/05/08 08:22:40;;;;;;;1.57;1.33;;;24.20;57.00;;;;;;5072886;28;20456;-84
2022/05/08 08:25:07;;;;;;;1.80;1.40;;;24.20;57.00;;;;;;5073078;28;20449;-83
2022/05/08 08:27:34;;;;;;;1.73;1.20;;;24.20;57.00;;;;;;5073035;28;20795;-83
2022/05/08 08:30:03;;;;;;;1.43;1.20;;;24.20;56.90;;;;;;5073005;28;20452;-83
2022/05/08 08:32:32;;;;;;;1.97;1.53;;;24.20;56.90;;;;;;5073011;28;20528;-83
2022/05/08 08:34:59;;;;;;;1.63;1.20;;;24.20;56.90;;;;;;5073096;28;20437;-83
2022/05/08 08:37:27;;;;;;;1.57;1.10;;;24.20;56.80;;;;;;5073133;28;20783;-83
2022/05/08 08:39:53;;;;;;;1.97;1.23;;;24.20;56.80;;;;;;5073172;28;20437;-92
2022/05/08 08:42:28;;;;;;;1.87;1.50;;;24.20;56.80;;;;;;5073265;28;20503;-91
2022/05/08 08:47:52;;;;;;;1.10;0.90;;;24.20;56.80;;;;;;5072975;28;20471;-82
2022/05/08 08:50:20;;;;;;;2.30;1.23;;;24.20;56.90;;;;;;5073238;28;20437;-83
2022/05/08 08:52:48;;;;;;;1.73;1.40;;;24.20;56.80;;;;;;5072772;28;20468;-83
2022/05/08 08:55:16;;;;;;;1.30;1.20;;;24.20;56.80;;;;;;5073087;28;20480;-91
2022/05/08 08:57:44;;;;;;;1.73;1.30;;;24.20;56.70;;;;;;5072993;28;20441;-92
2022/05/08 09:00:11;;;;;;;2.13;1.40;;;24.20;56.70;;;;;;5072710;28;20803;-83
2022/05/08 09:02:38;;;;;;;1.63;1.50;;;24.20;56.70;;;;;;5072698;28;20806;-83
2022/05/08 09:05:07;;;;;;;1.40;1.30;;;24.20;56.70;;;;;;5072880;28;20444;-91
2022/05/08 09:07:41;;;;;;;1.53;1.40;;;24.20;56.80;;;;;;5072836;28;20508;-90
2022/05/08 09:10:12;;;;;;;1.90;1.00;;;24.20;56.70;;;;;;5072775;28;20433;-83
2022/05/08 09:12:41;;;;;;;1.50;1.40;;;24.20;56.70;;;;;;5072831;28;20460;-92
2022/05/08 09:15:22;;;;;;;1.93;1.40;;;24.20;56.70;;;;;;5076981;28;20830;-83
2022/05/08 09:17:50;;;;;;;1.43;1.33;;;24.20;56.70;;;;;;5076772;28;20494;-82
2022/05/08 09:20:32;;;;;;;1.70;1.30;;;24.20;56.70;;;;;;5077314;28;20443;-82
2022/05/08 09:23:07;;;;;;;2.13;1.20;;;24.20;56.70;;;;;;5079478;28;20456;-83
2022/05/08 09:25:49;;;;;;;1.50;1.40;;;24.20;56.70;;;;;;5058453;28;20454;-83
2022/05/08 09:28:17;;;;;;;1.40;0.90;;;24.20;56.70;;;;;;5076516;28;20445;-84
2022/05/08 09:30:55;;;;;;;1.20;1.10;;;24.20;56.70;;;;;;5076391;28;20432;-83
2022/05/08 09:33:26;;;;;;;1.70;1.50;;;24.20;56.60;;;;;;5076098;28;20436;-83
2022/05/08 09:35:55;;;;;;;1.57;1.40;;;24.20;56.70;;;;;;5076378;28;20429;-87
2022/05/08 09:38:22;;;;;;;1.60;1.10;;;24.20;56.70;;;;;;5075896;28;20477;-82
2022/05/08 09:41:08;;;;;;;2.47;1.53;;;24.20;56.60;;;;;;5075758;28;20946;-83
2022/05/08 09:43:35;;;;;;;1.37;1.27;;;24.20;56.60;;;;;;5076158;28;20449;-83
2022/05/08 09:46:04;;;;;;;1.70;1.20;;;24.20;56.60;;;;;;5075590;28;20448;-83
2022/05/08 09:48:32;;;;;;;1.50;1.10;;;24.30;56.70;;;;;;5075693;28;20451;-83
2022/05/08 09:51:01;;;;;;;2.60;1.20;;;24.20;56.60;;;;;;5075672;28;20441;-83
2022/05/08 09:53:29;;;;;;;1.70;1.30;;;24.20;56.60;;;;;;5075698;28;20443;-85
2022/05/08 09:55:57;;;;;;;1.53;1.13;;;24.20;56.60;;;;;;5057928;28;20445;-82
2022/05/08 09:58:25;;;;;;;1.30;1.20;;;24.20;56.60;;;;;;5075459;28;20473;-82
2022/05/08 10:00:54;;;;;;;1.40;1.10;;;24.20;56.50;;;;;;5075807;28;20437;-83
2022/05/08 10:03:22;;;;;;;1.70;1.10;;;24.20;56.50;;;;;;5075220;28;20921;-83
2022/05/08 10:05:49;;;;;;;1.53;1.10;;;24.20;56.50;;;;;;5075592;28;20440;-83
2022/05/08 10:08:19;;;;;;;1.30;1.00;;;24.20;56.60;;;;;;5075893;28;20444;-90
2022/05/08 10:14:03;;;;;;;1.37;1.17;;;24.20;56.60;;;;;;5075457;28;20497;-83
2022/05/08 10:16:50;;;;;;;1.47;1.10;;;24.20;56.50;;;;;;5076264;28;20805;-83
2022/05/08 10:19:54;;;;;;;1.40;1.10;;;24.20;56.50;;;;;;5074935;28;20579;-83
2022/05/08 10:22:21;;;;;;;1.27;1.00;;;24.20;56.60;;;;;;5074863;28;20465;-82
2022/05/08 10:24:54;;;;;;;1.40;1.00;;;24.10;56.50;;;;;;5075245;28;20508;-84
2022/05/08 10:27:27;;;;;;;1.30;1.20;;;24.20;57.20;;;;;;5074985;28;20448;-83
2022/05/08 10:30:33;;;;;;;1.70;1.60;;;24.20;56.60;;;;;;5074777;28;20451;-87
2022/05/08 10:33:02;;;;;;;1.83;1.00;;;24.20;56.50;;;;;;5056445;28;20935;-83
2022/05/08 10:35:31;;;;;;;1.50;1.20;;;24.20;56.60;;;;;;5074879;28;20432;-83
2022/05/08 10:38:31;;;;;;;1.40;1.30;;;24.20;56.60;;;;;;5074798;28;20444;-83
2022/05/08 10:40:57;;;;;;;1.20;1.07;;;24.20;56.50;;;;;;5012789;28;20435;-83
2022/05/08 10:43:32;;;;;;;1.37;1.10;;;24.20;56.60;;;;;;5012865;28;20451;-83
2022/05/08 10:46:22;;;;;;;1.37;1.10;;;24.20;56.60;;;;;;5043493;28;20448;-83
2022/05/08 10:48:51;;;;;;;2.53;1.50;;;24.20;56.50;;;;;;5075130;28;20441;-83
2022/05/08 10:51:19;;;;;;;1.43;1.10;;;24.20;56.60;;;;;;5074529;28;20463;-82
2022/05/08 10:53:46;;;;;;;2.17;1.17;;;24.20;56.60;;;;;;5074611;28;20436;-84
2022/05/08 10:56:14;;;;;;;1.57;1.30;;;24.20;56.50;;;;;;5075631;28;20440;-84
2022/05/08 10:58:52;;;;;;;1.30;1.10;;;24.20;56.50;;;;;;5074670;28;20480;-91
2022/05/08 11:01:18;;;;;;;1.30;1.13;;;24.30;56.60;;;;;;5074592;28;20447;-91
2022/05/08 11:03:45;;;;;;;1.10;0.90;;;24.30;56.60;;;;;;5074535;28;20458;-83
2022/05/08 11:06:20;;;;;;;1.43;1.33;;;24.30;56.60;;;;;;5074295;28;20821;-91
2022/05/08 11:08:48;;;;;;;1.30;1.00;;;24.30;56.60;;;;;;5074285;28;20501;-85
2022/05/08 11:11:14;;;;;;;1.83;1.30;;;24.30;56.60;;;;;;5056580;28;20441;-83
2022/05/08 11:13:46;;;;;;;1.60;1.30;;;24.30;56.60;;;;;;5074397;28;20954;-92
2022/05/08 11:16:16;;;;;;;1.40;1.03;;;24.30;56.60;;;;;;5073912;28;20832;-84
2022/05/08 11:18:43;;;;;;;1.30;1.10;;;24.30;56.60;;;;;;5073685;28;20472;-83
2022/05/08 11:21:10;;;;;;;1.40;1.10;;;24.30;56.60;;;;;;5074055;28;20444;-83
2022/05/08 11:23:44;;;;;;;3.83;1.10;;;24.30;56.70;;;;;;5073938;28;20562;-91
2022/05/08 11:26:12;;;;;;;1.40;1.10;;;24.30;56.60;;;;;;5073939;28;20488;-84
2022/05/08 11:28:48;;;;;;;1.60;1.17;;;24.30;56.60;;;;;;5073763;28;20448;-83
2022/05/08 11:31:17;;;;;;;1.50;1.00;;;24.30;56.60;;;;;;5073641;28;20444;-92
2022/05/08 11:36:30;;;;;;;1.17;0.90;;;24.40;56.70;;;;;;5073986;28;20452;-83
2022/05/08 11:39:00;;;;;;;1.03;0.90;;;24.30;56.70;;;;;;5073932;28;20483;-83
2022/05/08 11:41:29;;;;;;;1.87;1.20;;;24.40;56.80;;;;;;5073792;28;20445;-83
2022/05/08 11:43:57;;;;;;;1.67;1.10;;;24.40;56.80;;;;;;5055182;28;20491;-83
2022/05/08 11:46:44;;;;;;;1.93;0.90;;;24.40;56.80;;;;;;5073279;28;20437;-83
2022/05/08 11:49:15;;;;;;;1.20;0.90;;;24.40;57.30;;;;;;5075259;28;20453;-84
2022/05/08 11:51:43;;;;;;;1.20;1.10;;;24.40;56.80;;;;;;5073482;28;20461;-83
2022/05/08 11:54:32;;;;;;;1.30;1.00;;;24.40;56.80;;;;;;5073172;28;20587;-91
2022/05/08 11:57:13;;;;;;;1.60;1.50;;;24.40;56.70;;;;;;5073296;28;20798;-91
2022/05/08 11:59:41;;;;;;;1.20;1.10;;;24.40;56.80;;;;;;5073031;28;20492;-92
2022/05/08 12:02:08;;;;;;;3.93;1.20;;;24.40;56.90;;;;;;5073175;28;20532;-83
2022/05/08 12:04:35;;;;;;;2.50;1.00;;;24.40;56.90;;;;;;5073239;28;20479;-90
2022/05/08 12:07:05;;;;;;;1.30;0.80;;;24.40;56.80;;;;;;5073182;28;20795;-83
2022/05/08 12:09:36;;;;;;;1.20;0.97;;;24.50;56.90;;;;;;5073211;28;20944;-89
2022/05/08 12:12:23;;;;;;;1.10;0.90;;;24.40;56.80;;;;;;5073286;28;20436;-84
2022/05/08 12:14:49;;;;;;;1.50;1.00;;;24.50;56.80;;;;;;5072909;28;20495;-83
2022/05/08 12:17:17;;;;;;;1.40;1.10;;;24.50;56.80;;;;;;5073122;28;20444;-83
2022/05/08 12:19:51;;;;;;;1.73;1.20;;;24.50;56.80;;;;;;5072905;28;20551;-82
2022/05/08 12:22:18;;;;;;;1.20;1.10;;;24.50;56.80;;;;;;5073003;28;20534;-84
2022/05/08 12:24:46;;;;;;;1.30;1.00;;;24.50;56.70;;;;;;5072982;28;20490;-83
2022/05/08 12:27:13;;;;;;;1.33;1.10;;;24.60;56.80;;;;;;5073012;28;20436;-83
2022/05/08 12:29:44;;;;;;;1.10;1.00;;;24.50;56.70;;;;;;5072910;28;20433;-83
2022/05/08 12:32:11;;;;;;;1.93;1.00;;;24.50;56.70;;;;;;5072981;28;20900;-83
2022/05/08 12:34:41;;;;;;;1.00;0.90;;;24.50;56.70;;;;;;5072977;28;20443;-83
2022/05/08 12:37:08;;;;;;;1.10;1.00;;;24.50;56.70;;;;;;5073097;28;20440;-83
2022/05/08 12:39:35;;;;;;;1.90;1.20;;;24.50;56.60;;;;;;5072760;28;20481;-83
2022/05/08 12:42:04;;;;;;;1.30;1.00;;;24.70;56.80;;;;;;5072829;28;20437;-84
2022/05/08 12:44:30;;;;;;;1.20;1.10;;;24.60;56.70;;;;;;5072830;28;20443;-84
2022/05/08 12:47:00;;;;;;;1.67;1.13;;;24.50;56.60;;;;;;5072927;28;20444;-84
2022/05/08 12:49:27;;;;;;;1.40;1.00;;;24.60;56.70;;;;;;5072808;28;20471;-92
2022/05/08 12:51:53;;;;;;;1.17;0.90;;;24.60;56.70;;;;;;5072721;28;20578;-82
2022/05/08 12:54:20;;;;;;;1.57;1.03;;;24.60;56.60;;;;;;5072845;28;20852;-89
2022/05/08 12:56:47;;;;;;;1.07;0.97;;;24.60;56.60;;;;;;5075262;28;20467;-83
2022/05/08 13:01:59;;;;;;;1.37;0.90;;;24.70;56.70;;;;;;5076595;28;20554;-83
2022/05/08 13:04:26;;;;;;;1.20;0.97;;;24.60;56.70;;;;;;5076513;28;20440;-83
2022/05/08 13:06:53;;;;;;;1.20;0.80;;;24.60;56.60;;;;;;5076468;28;20498;-82
2022/05/08 13:09:19;;;;;;;1.87;1.37;;;24.70;56.70;;;;;;5078336;28;20437;-83
2022/05/08 13:11:48;;;;;;;1.70;1.00;;;24.60;56.60;;;;;;5076275;28;20532;-83
2022/05/08 13:14:16;;;;;;;1.50;1.07;;;24.60;56.60;;;;;;5076142;28;20503;-91
2022/05/08 13:16:44;;;;;;;1.20;1.00;;;24.60;56.60;;;;;;5076506;28;20441;-83
2022/05/08 13:19:10;;;;;;;1.17;1.00;;;24.70;56.60;;;;;;5075984;28;20488;-83
2022/05/08 13:21:39;;;;;;;1.93;1.23;;;24.60;56.50;;;;;;5076251;28;20460;-91
2022/05/08 13:24:08;;;;;;;1.20;1.10;;;24.60;56.50;;;;;;5076050;28;20798;-83
2022/05/08 13:26:35;;;;;;;1.37;1.23;;;24.60;56.50;;;;;;5076114;28;20832;-91